Time;durP1;ratioP1;P1;durP2;ratioP2;P2;SDS_P1;SDS_P2;PMS_P1;PMS_P2;Temp;Humidity;BMP_temperature;BMP_pressure;BME280_temperature;BME280_humidity;BME280_pressure;Samples;Min_cycle;Max_cycle;Signal;HPM_P1;HPM_P2
2023/06/22 00:01:26;;;;;;;2.78;2.67;;;20.10;99.90;;;20.74;86.99;101846.09;5050444;28;20537;-65
2023/06/22 00:03:56;;;;;;;2.67;2.58;;;20.30;99.90;;;20.73;86.33;101840.78;5050707;28;20100;-65
2023/06/22 00:06:25;;;;;;;2.45;2.35;;;20.30;99.90;;;20.70;87.06;101844.44;5050343;28;20378;-65
2023/06/22 00:08:53;;;;;;;2.40;2.30;;;20.30;99.90;;;20.98;86.95;101847.16;5046726;28;20569;-65
2023/06/22 00:11:21;;;;;;;2.72;2.63;;;20.50;99.90;;;21.07;86.53;101852.28;5050920;28;20045;-65
2023/06/22 00:13:50;;;;;;;2.63;2.53;;;20.60;99.90;;;20.94;86.92;101846.38;5050326;28;20103;-65
2023/06/22 00:16:19;;;;;;;3.25;3.05;;;20.50;99.90;;;20.86;87.88;101844.84;5050641;28;20079;-65
2023/06/22 00:18:48;;;;;;;2.38;2.28;;;20.40;99.90;;;20.92;87.09;101840.16;5050263;28;20447;-65
2023/06/22 00:21:20;;;;;;;2.42;2.33;;;20.40;99.90;;;21.04;86.06;101842.47;5049163;28;20416;-65
2023/06/22 00:23:48;;;;;;;3.90;3.70;;;20.60;99.90;;;21.16;85.53;101843.88;5050391;28;20080;-65
2023/06/22 00:26:17;;;;;;;2.30;2.20;;;20.70;99.90;;;21.14;84.91;101840.38;5050188;28;20073;-65
2023/06/22 00:28:45;;;;;;;2.58;2.47;;;20.70;99.90;;;21.16;85.13;101843.88;5049625;28;20056;-65
2023/06/22 00:31:14;;;;;;;3.05;2.95;;;20.70;99.90;;;21.10;84.69;101838.72;5050163;28;20477;-66
2023/06/22 00:33:42;;;;;;;2.53;2.42;;;20.60;99.90;;;21.07;85.12;101834.31;5053826;28;20485;-65
2023/06/22 00:36:13;;;;;;;2.30;2.20;;;20.60;99.90;;;21.14;84.77;101829.59;5054283;28;20040;-66
2023/06/22 00:38:42;;;;;;;;;;;20.70;99.90;;;21.03;84.09;101829.06;5054601;28;20045;-65
2023/06/22 00:41:11;;;;;;;2.55;2.45;;;20.60;99.90;;;21.04;84.42;101831.72;5053737;28;20301;-65
2023/06/22 00:43:41;;;;;;;2.42;2.33;;;20.60;99.90;;;21.06;84.29;101821.78;5053589;28;20368;-65
2023/06/22 00:46:10;;;;;;;2.72;2.63;;;20.60;99.90;;;21.14;84.40;101819.72;5052550;28;20052;-65
2023/06/22 00:48:43;;;;;;;2.58;2.47;;;20.70;99.90;;;21.15;84.16;101820.63;5054702;28;20044;-64
2023/06/22 00:51:12;;;;;;;2.35;2.25;;;20.70;99.90;;;21.15;84.05;101826.88;5050339;28;20088;-65
2023/06/22 00:53:43;;;;;;;2.50;2.40;;;20.70;99.90;;;21.16;83.68;101825.06;5061832;28;20456;-65
2023/06/22 00:56:12;;;;;;;2.35;2.25;;;20.70;99.90;;;21.17;83.43;101814.25;5054637;28;20053;-65
2023/06/22 00:58:41;;;;;;;2.38;2.28;;;20.70;99.90;;;21.24;83.10;101818.50;5054585;28;20068;-65
2023/06/22 01:01:10;;;;;;;2.60;2.50;;;20.80;99.90;;;21.35;82.59;101819.00;5054469;28;20045;-65
2023/06/22 01:03:38;;;;;;;2.67;2.58;;;20.90;99.90;;;21.42;82.48;101817.00;5054212;28;20402;-65
2023/06/22 01:06:11;;;;;;;2.83;2.72;;;21.00;99.90;;;21.39;82.48;101817.09;5054333;28;20133;-65
2023/06/22 01:08:50;;;;;;;2.83;2.72;;;20.90;99.90;;;21.36;82.15;101811.81;5086190;28;20048;-65
2023/06/22 01:11:27;;;;;;;2.72;2.63;;;20.90;99.90;;;21.28;82.07;101801.31;5061508;28;20044;-65
2023/06/22 01:14:06;;;;;;;2.53;2.42;;;20.90;99.90;;;21.31;81.92;101813.81;5054154;28;20075;-65
2023/06/22 01:16:42;;;;;;;2.70;2.60;;;20.80;99.90;;;21.38;82.28;101808.16;5051759;28;20045;-67
2023/06/22 01:19:26;;;;;;;2.40;2.30;;;21.00;99.90;;;21.38;81.40;101810.84;5054141;28;20045;-67
2023/06/22 01:21:57;;;;;;;3.90;3.70;;;20.90;99.90;;;21.25;81.15;101817.56;5051811;28;20049;-67
2023/06/22 01:24:35;;;;;;;2.42;2.33;;;20.80;99.90;;;21.21;81.63;101802.47;5053806;28;20053;-67
2023/06/22 01:27:21;;;;;;;4.10;3.45;;;20.70;99.90;;;21.18;81.76;101799.84;5048714;28;20053;-66
2023/06/22 01:30:00;;;;;;;2.30;2.20;;;20.70;99.90;;;21.11;81.31;101798.31;5053870;28;20455;-67
2023/06/22 01:32:32;;;;;;;2.50;2.40;;;20.70;99.90;;;21.07;81.46;101802.03;5049305;28;20164;-67
2023/06/22 01:35:05;;;;;;;2.58;2.47;;;20.60;99.90;;;21.12;82.38;101804.56;5053856;28;20068;-67
2023/06/22 01:37:36;;;;;;;2.38;2.28;;;20.60;99.90;;;21.01;83.15;101777.13;5052340;28;20059;-67
2023/06/22 01:40:06;;;;;;;2.50;2.40;;;20.60;99.90;;;21.16;82.90;101801.72;5053298;28;20063;-67
2023/06/22 01:42:36;;;;;;;2.70;2.60;;;20.70;99.90;;;21.11;82.56;101798.31;5053644;28;20056;-67
2023/06/22 01:45:08;;;;;;;2.40;2.30;;;20.60;99.90;;;21.06;82.50;101810.16;5050184;28;20106;-67
2023/06/22 01:47:39;;;;;;;2.28;2.17;;;20.60;99.90;;;21.06;82.43;101807.47;5052115;28;20052;-67
2023/06/22 01:50:09;;;;;;;2.47;2.38;;;20.60;99.90;;;21.08;83.21;101801.09;5053433;28;20044;-67
2023/06/22 01:52:37;;;;;;;2.72;2.63;;;20.60;99.90;;;21.04;83.14;101810.19;5051850;28;20513;-67
2023/06/22 01:55:07;;;;;;;2.40;2.30;;;20.60;99.90;;;20.83;83.39;101813.53;5053448;28;20049;-67
2023/06/22 01:57:37;;;;;;;2.42;2.33;;;20.40;99.90;;;20.62;83.40;101809.72;5053375;28;20055;-67
2023/06/22 02:00:13;;;;;;;2.88;2.78;;;20.20;99.90;;;20.53;84.17;101804.63;5048133;28;20072;-67
2023/06/22 02:02:55;;;;;;;2.70;2.60;;;20.10;99.90;;;20.44;84.92;101806.72;5053309;28;20548;-67
2023/06/22 02:05:26;;;;;;;2.60;2.50;;;20.00;99.90;;;20.44;84.76;101807.56;5052991;28;20045;-67
2023/06/22 02:08:03;;;;;;;2.20;2.10;;;20.00;99.90;;;20.36;84.54;101803.38;5049749;28;20044;-67
2023/06/22 02:10:33;;;;;;;2.75;2.65;;;19.90;99.90;;;20.28;84.52;101797.34;5060354;28;20049;-67
2023/06/22 02:13:06;;;;;;;2.30;2.20;;;19.90;99.90;;;20.28;84.91;101792.84;5068342;28;20467;-67
2023/06/22 02:15:36;;;;;;;2.42;2.33;;;19.80;99.90;;;20.24;85.94;101790.28;5051624;28;20057;-67
2023/06/22 02:18:05;;;;;;;2.20;2.10;;;19.80;99.90;;;20.25;85.52;101797.41;5061716;28;20037;-67
2023/06/22 02:20:34;;;;;;;2.25;2.15;;;19.80;99.90;;;20.19;84.76;101790.41;5052792;28;20056;-67
2023/06/22 02:23:02;;;;;;;2.75;2.65;;;19.80;99.90;;;20.19;84.93;101786.88;5068091;28;20057;-67
2023/06/22 02:25:31;;;;;;;3.20;3.03;;;19.70;99.90;;;20.17;85.20;101786.84;5051376;28;20049;-67
2023/06/22 02:28:00;;;;;;;2.30;2.20;;;19.70;99.90;;;20.20;85.56;101785.94;5051270;28;20581;-66
2023/06/22 02:30:28;;;;;;;2.72;2.63;;;19.70;99.90;;;20.21;85.94;101785.88;5052693;28;20041;-67
2023/06/22 02:32:59;;;;;;;2.55;2.45;;;19.70;99.90;;;20.29;86.44;101778.47;5067946;28;20561;-68
2023/06/22 02:35:31;;;;;;;2.63;2.53;;;19.80;99.90;;;20.32;86.03;101775.72;5052385;28;20065;-67
2023/06/22 02:38:00;;;;;;;2.65;2.55;;;19.90;99.90;;;20.36;85.88;101785.41;5048737;28;20486;-67
2023/06/22 02:40:30;;;;;;;2.60;2.50;;;19.90;99.90;;;20.36;85.01;101780.03;5052521;28;20057;-67
2023/06/22 02:43:02;;;;;;;2.30;2.20;;;20.00;99.90;;;20.36;84.86;101780.03;5052463;28;20041;-68
2023/06/22 02:45:31;;;;;;;2.40;2.30;;;20.00;99.90;;;20.45;84.82;101777.09;5051089;28;20471;-68
2023/06/22 02:48:01;;;;;;;2.35;2.25;;;20.00;99.90;;;20.44;85.50;101779.84;5050917;28;20601;-67
2023/06/22 02:50:30;;;;;;;4.82;4.63;;;20.00;99.90;;;20.43;85.82;101792.38;5050717;28;20049;-68
2023/06/22 02:52:59;;;;;;;2.25;2.15;;;20.00;99.90;;;20.29;84.72;101786.53;5050029;28;20578;-67
2023/06/22 02:55:30;;;;;;;2.80;2.70;;;19.90;99.90;;;20.25;85.59;101786.66;5047344;28;20082;-67
2023/06/22 02:58:02;;;;;;;2.40;2.30;;;19.80;99.90;;;20.37;86.77;101787.19;5050946;28;20406;-66
2023/06/22 03:00:32;;;;;;;2.63;2.53;;;19.90;99.90;;;20.33;86.74;101790.00;5067582;28;20939;-67
2023/06/22 03:03:02;;;;;;;2.40;2.30;;;19.90;99.90;;;20.31;85.90;101792.75;5050604;28;20131;-67
2023/06/22 03:05:32;;;;;;;3.08;2.97;;;19.90;99.90;;;20.30;85.60;101791.00;5067612;28;20079;-66
2023/06/22 03:08:01;;;;;;;2.63;2.53;;;19.80;99.90;;;20.35;85.50;101797.09;5050795;28;20099;-67
2023/06/22 03:10:33;;;;;;;2.58;2.47;;;19.90;99.90;;;20.32;85.07;101793.63;5050914;28;20145;-67
2023/06/22 03:13:01;;;;;;;2.83;2.72;;;19.90;99.90;;;20.24;85.67;101783.13;5050898;28;20045;-67
2023/06/22 03:15:31;;;;;;;2.60;2.50;;;19.80;99.90;;;20.17;85.48;101772.56;5052113;28;20053;-67
2023/06/22 03:17:59;;;;;;;2.50;2.40;;;19.80;99.90;;;20.12;85.86;101767.31;5050846;28;20060;-67
2023/06/22 03:20:33;;;;;;;2.50;2.40;;;19.60;99.90;;;19.55;85.82;101664.28;5084427;28;20454;-67
2023/06/22 03:23:01;;;;;;;2.88;2.78;;;19.60;99.90;;;19.93;85.54;101758.03;5052441;28;20470;-67
2023/06/22 03:25:30;;;;;;;2.97;2.88;;;19.50;99.90;;;19.85;86.04;101752.00;5050850;28;20041;-68
2023/06/22 03:27:58;;;;;;;2.70;2.60;;;19.40;99.90;;;20.03;86.53;101759.53;5048265;28;20386;-68
2023/06/22 03:30:28;;;;;;;2.40;2.30;;;19.50;99.90;;;19.79;87.25;101760.22;5050931;28;20486;-67
2023/06/22 03:32:57;;;;;;;2.53;2.42;;;19.40;99.90;;;19.59;88.28;101754.50;5051166;28;20048;-67
2023/06/22 03:41:34;;;;;;;2.40;2.30;;;19.00;99.90;;;19.43;86.69;101756.75;4668493;28;20284;-70
2023/06/22 03:44:03;;;;;;;2.60;2.50;;;19.00;99.90;;;19.42;86.38;101751.41;4714945;30;20153;-70
2023/06/22 03:46:31;;;;;;;2.55;2.45;;;19.00;99.90;;;19.48;86.44;101743.19;4724229;30;20037;-70
2023/06/22 03:49:00;;;;;;;2.55;2.45;;;19.00;99.90;;;19.49;86.32;101747.66;4717160;30;20110;-70
2023/06/22 03:51:32;;;;;;;2.60;2.50;;;19.00;99.90;;;19.48;86.33;101745.88;4725215;30;20059;-70
2023/06/22 03:54:00;;;;;;;2.72;2.63;;;19.00;99.90;;;19.48;86.70;101736.03;4724770;30;20127;-70
2023/06/22 03:56:29;;;;;;;2.70;2.60;;;19.10;99.90;;;19.51;86.80;101746.66;4726015;30;20840;-70
2023/06/22 03:58:59;;;;;;;2.65;2.55;;;19.10;99.90;;;19.50;86.74;101744.03;4708358;30;20474;-70
2023/06/22 04:01:27;;;;;;;2.90;2.80;;;19.10;99.90;;;19.51;86.54;101746.66;4726819;30;20095;-70
2023/06/22 04:03:55;;;;;;;2.45;2.35;;;19.10;99.90;;;19.60;86.56;101740.16;4728714;30;20151;-70
2023/06/22 04:06:24;;;;;;;2.50;2.40;;;19.10;99.90;;;19.68;86.70;101736.38;4727413;30;20053;-70
2023/06/22 04:08:52;;;;;;;3.00;2.90;;;19.20;99.90;;;19.80;86.74;101743.19;4729306;30;20052;-70
2023/06/22 04:11:20;;;;;;;3.25;3.13;;;19.30;99.90;;;20.00;87.35;101745.28;4728102;30;20135;-69
2023/06/22 04:13:51;;;;;;;3.50;3.35;;;19.50;99.90;;;20.13;87.19;101738.66;4728626;30;20103;-71
2023/06/22 04:16:20;;;;;;;;;;;19.70;99.90;;;20.26;87.19;101749.00;4728935;30;20057;-69
2023/06/22 04:18:49;;;;;;;2.40;2.30;;;19.80;99.90;;;20.35;87.52;101753.22;4727497;30;20021;-70
2023/06/22 04:21:19;;;;;;;2.40;2.30;;;19.90;99.90;;;20.46;87.53;101749.25;4729180;30;20462;-69
2023/06/22 04:23:47;;;;;;;2.22;2.13;;;20.10;99.90;;;20.51;87.40;101755.41;4725416;30;20503;-70
2023/06/22 04:26:16;;;;;;;2.30;2.20;;;20.20;99.90;;;20.66;87.22;101757.59;4710827;30;20506;-70
2023/06/22 04:28:51;;;;;;;2.60;2.50;;;20.30;99.90;;;20.75;87.08;101763.63;4729517;30;20056;-70
2023/06/22 04:31:21;;;;;;;2.70;2.60;;;20.30;99.90;;;20.84;87.28;101763.31;4728171;30;20053;-70
2023/06/22 04:33:51;;;;;;;7.20;3.45;;;20.40;99.90;;;20.91;87.58;101759.47;4727617;30;20099;-70
2023/06/22 04:36:21;;;;;;;2.47;2.38;;;20.50;99.90;;;21.02;87.00;101760.06;4728879;30;20053;-70
2023/06/22 04:38:52;;;;;;;2.33;2.22;;;20.60;99.90;;;21.12;86.77;101765.06;4726230;30;20057;-70
2023/06/22 04:41:23;;;;;;;3.65;3.53;;;20.70;99.90;;;21.17;86.46;101759.53;4719338;30;20080;-70
2023/06/22 04:43:53;;;;;;;2.90;2.80;;;20.70;99.90;;;21.27;86.06;101759.16;4719143;30;20076;-70
2023/06/22 04:46:23;;;;;;;2.78;2.67;;;20.90;99.90;;;21.38;86.31;101765.09;4719205;30;20061;-70
2023/06/22 04:48:52;;;;;;;4.32;4.13;;;21.00;99.90;;;21.50;85.81;101758.38;4726036;30;20087;-70
2023/06/22 04:51:21;;;;;;;2.42;2.33;;;21.10;99.90;;;21.48;85.25;101733.34;4728340;30;20083;-70
2023/06/22 04:53:50;;;;;;;2.35;2.25;;;21.20;99.90;;;21.67;85.35;101761.34;4726501;30;20060;-70
2023/06/22 04:56:21;;;;;;;2.20;2.10;;;21.30;99.90;;;21.77;85.33;101762.78;4729012;30;20052;-70
2023/06/22 04:58:51;;;;;;;2.58;2.47;;;21.40;99.90;;;21.88;84.92;101760.63;4710609;30;20068;-70
2023/06/22 05:01:21;;;;;;;;;;;21.50;99.90;;;21.90;85.17;101763.25;4728955;30;20444;-69
2023/06/22 05:03:55;;;;;;;2.80;2.70;;;21.60;99.90;;;22.03;84.52;101765.44;4727208;30;19933;-70
2023/06/22 05:06:25;;;;;;;3.97;3.75;;;21.70;99.90;;;22.09;84.37;101772.41;4727082;30;20053;-70
2023/06/22 05:08:57;;;;;;;2.55;2.45;;;21.70;99.90;;;22.11;84.14;101767.84;4728422;30;20057;-70
2023/06/22 05:11:26;;;;;;;2.58;2.47;;;21.80;99.90;;;22.17;83.92;101773.00;4710166;30;20049;-70
2023/06/22 05:13:55;;;;;;;7.60;3.53;;;21.90;99.90;;;22.20;83.32;101771.06;4728357;30;20192;-69
2023/06/22 05:16:25;;;;;;;2.30;2.20;;;21.90;99.90;;;22.26;82.93;101772.66;4726149;30;20057;-71
2023/06/22 05:18:56;;;;;;;4.43;4.15;;;22.00;99.90;;;22.35;83.04;101773.19;4727479;30;20427;-70
2023/06/22 05:21:27;;;;;;;2.83;2.72;;;22.00;99.90;;;22.27;83.08;101759.13;4727553;30;20060;-70
2023/06/22 05:23:56;;;;;;;2.30;2.20;;;22.00;99.90;;;22.44;82.65;101766.53;4726180;30;20060;-71
2023/06/22 05:26:25;;;;;;;2.42;2.33;;;22.20;99.90;;;22.56;81.98;101776.84;4728464;30;20103;-70
2023/06/22 05:28:53;;;;;;;2.35;2.25;;;22.20;99.90;;;22.65;81.89;101772.97;4718221;30;20057;-71
2023/06/22 05:31:22;;;;;;;2.33;2.22;;;22.30;99.90;;;22.67;81.48;101768.34;4718405;30;20080;-70
2023/06/22 05:33:56;;;;;;;2.63;2.53;;;22.40;99.90;;;22.70;80.97;101773.66;4719156;30;20088;-70
2023/06/22 05:36:25;;;;;;;2.55;2.45;;;22.40;99.90;;;22.74;80.81;101761.78;4725869;30;20053;-70
2023/06/22 05:38:54;;;;;;;2.30;2.20;;;22.40;99.90;;;22.80;80.59;101766.94;4727417;30;20132;-70
2023/06/22 05:41:22;;;;;;;2.50;2.40;;;22.50;99.90;;;22.85;80.15;101767.63;4725813;30;20069;-69
2023/06/22 05:43:51;;;;;;;2.25;2.15;;;22.50;99.90;;;22.87;79.19;101766.63;4727921;30;20566;-69
2023/06/22 05:46:20;;;;;;;2.47;2.38;;;22.60;99.90;;;22.84;78.60;101771.28;4716781;30;20048;-69
2023/06/22 05:48:49;;;;;;;2.37;2.27;;;22.60;99.90;;;22.87;78.48;101780.13;4718084;30;20057;-70
2023/06/22 05:51:18;;;;;;;2.17;2.08;;;22.60;99.90;;;22.97;78.31;101759.94;4718022;30;20156;-69
2023/06/22 05:53:49;;;;;;;2.87;2.77;;;22.70;99.90;;;22.90;78.29;101757.53;4717923;30;20586;-69
2023/06/22 05:56:18;;;;;;;3.35;3.15;;;22.70;99.90;;;22.84;78.98;101760.50;4721482;30;20657;-70
2023/06/22 05:58:47;;;;;;;4.60;3.78;;;22.60;99.90;;;22.84;77.57;101765.88;4727015;30;20361;-70
2023/06/22 06:01:16;;;;;;;2.40;2.30;;;22.60;99.90;;;23.00;78.22;101767.88;4725986;30;20578;-70
2023/06/22 06:03:44;;;;;;;4.50;4.07;;;22.70;99.90;;;22.59;80.04;101765.13;4711837;30;20396;-70
2023/06/22 06:06:13;;;;;;;3.90;3.58;;;22.40;99.90;;;22.74;79.76;101764.50;4725344;30;20464;-70
2023/06/22 06:08:43;;;;;;;4.45;4.10;;;22.40;99.90;;;22.86;78.77;101770.25;4728038;30;20056;-70
2023/06/22 06:11:11;;;;;;;4.13;3.70;;;22.50;99.90;;;21.97;81.52;101771.03;4701715;30;20068;-70
2023/06/22 06:13:40;;;;;;;3.95;3.20;;;21.70;99.90;;;21.94;84.03;101762.19;4717597;30;20053;-70
2023/06/22 06:16:08;;;;;;;5.07;4.68;;;21.50;99.90;;;21.93;82.70;101764.00;4717568;30;20068;-70
2023/06/22 06:18:37;;;;;;;2.50;2.40;;;21.50;99.90;;;21.94;84.10;101765.78;4721052;30;20063;-70
2023/06/22 06:21:05;;;;;;;4.35;4.05;;;21.40;99.90;;;22.16;83.16;101760.47;4726227;30;20052;-70
2023/06/22 06:23:34;;;;;;;2.58;2.47;;;21.70;99.90;;;22.06;83.82;101767.13;4725848;30;20096;-69
2023/06/22 06:26:06;;;;;;;2.38;2.28;;;21.70;99.90;;;22.40;82.61;101771.19;4711168;30;20065;-70
2023/06/22 06:28:36;;;;;;;2.55;2.45;;;21.90;99.90;;;22.41;83.52;101767.53;4724609;30;20139;-69
2023/06/22 06:31:08;;;;;;;2.20;2.10;;;22.00;99.90;;;22.69;81.90;101755.69;4717305;30;20081;-69
2023/06/22 06:33:37;;;;;;;2.80;2.70;;;22.30;99.90;;;22.64;79.49;101752.31;4717374;30;20080;-70
2023/06/22 06:36:08;;;;;;;2.30;2.20;;;22.40;99.90;;;22.85;78.66;101756.84;4717155;30;20057;-70
2023/06/22 06:38:36;;;;;;;;;;;22.50;99.90;;;23.01;77.98;101755.28;4721392;30;20136;-69
2023/06/22 06:41:06;;;;;;;3.15;3.05;;;22.70;99.90;;;22.58;79.70;101758.84;4722219;30;19927;-70
2023/06/22 06:43:34;;;;;;;4.27;3.97;;;22.40;99.90;;;22.40;81.76;101754.13;4727057;30;20072;-70
2023/06/22 06:46:03;;;;;;;2.30;2.20;;;22.10;99.90;;;22.60;81.69;101753.38;4724503;30;20049;-69
2023/06/22 06:48:31;;;;;;;3.00;2.80;;;22.20;99.90;;;22.28;82.47;101758.16;4724135;30;20122;-69
2023/06/22 06:51:00;;;;;;;4.95;4.45;;;22.00;99.90;;;22.21;82.39;101753.97;4724304;30;20049;-70
2023/06/22 06:53:28;;;;;;;2.80;2.70;;;21.90;99.90;;;22.08;84.55;101747.28;4726862;30;20106;-70
2023/06/22 06:55:56;;;;;;;2.42;2.33;;;21.70;99.90;;;22.42;83.75;101753.13;4724977;30;20056;-69
2023/06/22 06:58:28;;;;;;;2.72;2.63;;;21.90;99.90;;;22.40;82.43;101746.03;4710462;30;20053;-70
2023/06/22 07:00:57;;;;;;;3.20;3.10;;;22.00;99.90;;;22.77;82.18;101742.78;4726204;30;20511;-69
2023/06/22 07:03:25;;;;;;;3.15;3.03;;;22.30;99.90;;;22.99;80.00;101741.84;4724946;30;20057;-70
2023/06/22 07:05:53;;;;;;;2.60;2.50;;;22.60;99.90;;;23.26;78.83;101745.19;4726510;30;20060;-70
2023/06/22 07:08:22;;;;;;;3.67;3.47;;;22.80;99.90;;;23.44;76.66;101733.59;4724578;30;20072;-70
2023/06/22 07:10:50;;;;;;;2.40;2.30;;;23.10;99.90;;;23.61;75.68;101736.47;4727006;30;20092;-70
2023/06/22 07:13:18;;;;;;;3.50;3.30;;;23.30;99.90;;;23.78;73.78;101736.59;4723701;30;20053;-69
2023/06/22 07:15:48;;;;;;;2.83;2.67;;;23.50;99.90;;;23.90;71.88;101736.03;4726726;30;20128;-70
2023/06/22 07:18:16;;;;;;;2.38;2.28;;;23.60;99.90;;;24.09;71.68;101736.09;4724912;30;20389;-70
2023/06/22 07:20:45;;;;;;;2.88;2.78;;;23.80;99.90;;;23.92;70.71;101717.94;4717274;30;20061;-67
2023/06/22 07:23:13;;;;;;;7.10;3.15;;;23.80;99.90;;;23.92;69.98;101728.75;4725229;30;20057;-67
2023/06/22 07:25:42;;;;;;;2.63;2.53;;;23.70;99.90;;;24.07;70.18;101730.75;4716567;30;20450;-68
2023/06/22 07:28:11;;;;;;;2.40;2.30;;;23.80;99.90;;;24.27;69.81;101728.94;4725836;30;20115;-67
2023/06/22 07:30:39;;;;;;;2.10;2.00;;;24.00;99.90;;;24.40;69.40;101722.88;4724381;30;20065;-67
2023/06/22 07:33:09;;;;;;;2.60;2.50;;;24.20;99.90;;;24.59;68.49;101729.16;4726555;30;20088;-67
2023/06/22 07:35:37;;;;;;;2.00;1.90;;;24.30;99.90;;;24.71;67.78;101720.44;4715433;30;20091;-67
2023/06/22 07:38:06;;;;;;;2.00;1.90;;;24.50;99.90;;;24.80;65.92;101714.59;4717569;30;20053;-67
2023/06/22 07:40:35;;;;;;;2.35;2.25;;;24.60;99.90;;;24.94;64.19;101716.63;4720092;30;20069;-66
2023/06/22 07:43:04;;;;;;;2.65;2.55;;;24.70;99.90;;;25.00;63.09;101708.19;4719998;30;20132;-70
2023/06/22 07:45:34;;;;;;;1.98;1.88;;;24.80;99.90;;;25.15;64.41;101704.69;4720228;30;20052;-70
2023/06/22 07:48:03;;;;;;;3.00;2.80;;;24.90;99.90;;;25.37;64.83;101707.16;4727959;30;20057;-70
2023/06/22 07:50:33;;;;;;;1.90;1.80;;;25.10;99.90;;;25.54;63.61;101712.59;4727999;30;20044;-70
2023/06/22 07:53:01;;;;;;;1.60;1.60;;;25.30;99.90;;;25.57;61.99;101709.75;4729794;30;20110;-70
2023/06/22 07:55:30;;;;;;;2.42;2.33;;;25.40;99.90;;;25.65;62.35;101705.66;4727080;30;20057;-68
2023/06/22 07:57:58;;;;;;;2.17;2.08;;;25.40;99.90;;;25.72;62.28;101700.78;4719810;30;20107;-69
2023/06/22 08:00:27;;;;;;;2.63;2.40;;;25.60;99.90;;;25.87;62.67;101702.66;4719828;30;20045;-70
2023/06/22 08:02:56;;;;;;;2.05;1.95;;;25.60;99.90;;;25.91;61.36;101698.84;4719887;30;20077;-69
2023/06/22 08:05:24;;;;;;;1.80;1.80;;;25.70;99.90;;;26.03;60.60;101697.28;4719792;30;20049;-70
2023/06/22 08:07:54;;;;;;;2.10;2.00;;;25.80;99.90;;;26.09;59.09;101696.97;4728050;30;20053;-70
2023/06/22 08:10:23;;;;;;;2.00;1.90;;;25.90;99.90;;;26.01;58.09;101699.19;4728172;30;20131;-70
2023/06/22 08:12:52;;;;;;;2.63;2.42;;;25.90;99.90;;;25.98;57.17;101697.53;4729052;30;20061;-70
2023/06/22 08:15:21;;;;;;;1.80;1.80;;;25.80;99.90;;;26.17;58.17;101701.00;4727438;30;20132;-70
2023/06/22 08:17:52;;;;;;;1.77;1.77;;;26.00;99.90;;;26.13;56.41;101696.69;4729661;30;20056;-70
2023/06/22 08:20:21;;;;;;;1.77;1.75;;;25.90;99.90;;;26.09;55.57;101703.28;4726807;30;20123;-70
2023/06/22 08:22:49;;;;;;;1.90;1.85;;;25.90;99.90;;;26.27;56.48;101704.06;4729482;30;20056;-70
2023/06/22 08:25:19;;;;;;;2.08;1.98;;;26.00;99.90;;;26.24;55.54;101690.69;4726230;30;20080;-70
2023/06/22 08:27:48;;;;;;;1.60;1.60;;;26.10;99.90;;;25.78;57.06;101695.03;4728444;30;20143;-70
2023/06/22 08:30:18;;;;;;;2.05;1.95;;;25.60;99.90;;;25.98;55.22;101688.53;4728157;30;20617;-68
2023/06/22 08:32:46;;;;;;;2.03;1.92;;;25.70;99.90;;;26.25;55.63;101697.88;4727320;30;20061;-70
2023/06/22 08:35:15;;;;;;;2.33;2.15;;;25.90;99.90;;;26.44;56.29;101690.44;4729386;30;20052;-68
2023/06/22 08:37:50;;;;;;;2.10;2.00;;;26.10;99.90;;;26.55;55.49;101682.56;4726599;30;20128;-68
2023/06/22 08:40:21;;;;;;;1.83;1.83;;;26.30;99.90;;;26.76;56.14;101684.94;4726787;30;20140;-68
2023/06/22 08:42:50;;;;;;;2.10;2.00;;;26.50;99.90;;;26.87;55.20;101689.72;4728366;30;20681;-68
2023/06/22 08:45:18;;;;;;;2.10;2.00;;;26.70;99.90;;;26.95;54.42;101682.00;4727691;30;20476;-68
2023/06/22 08:47:46;;;;;;;1.80;1.80;;;26.80;99.90;;;27.11;54.08;101688.28;4727507;30;20404;-68
2023/06/22 08:50:15;;;;;;;1.80;1.80;;;26.80;99.90;;;27.29;54.69;101687.16;4726028;30;20057;-68
2023/06/22 08:52:45;;;;;;;3.00;2.78;;;27.10;99.90;;;26.67;51.82;101684.56;4726638;30;20049;-68
2023/06/22 08:55:14;;;;;;;1.80;1.80;;;26.80;99.90;;;26.70;54.70;101684.41;4729427;30;20088;-69
2023/06/22 08:57:44;;;;;;;1.60;1.60;;;26.40;99.90;;;26.60;53.95;101681.31;4713514;30;20151;-68
2023/06/22 09:00:18;;;;;;;4.47;2.50;;;26.40;99.90;;;26.92;53.02;101684.91;4726336;30;20049;-69
2023/06/22 09:02:48;;;;;;;1.63;1.63;;;26.60;99.90;;;27.15;52.46;101683.53;4727760;30;20110;-68
2023/06/22 09:05:17;;;;;;;1.75;1.75;;;26.80;99.90;;;27.37;54.37;101674.00;4728290;30;20493;-68
2023/06/22 09:07:45;;;;;;;1.52;1.52;;;27.10;99.90;;;27.53;54.18;101682.97;4726743;30;20053;-68
2023/06/22 09:10:14;;;;;;;4.03;2.15;;;27.30;99.90;;;27.63;52.48;101670.56;4728368;30;20083;-69
2023/06/22 09:12:47;;;;;;;1.52;1.52;;;27.40;99.90;;;27.81;51.41;101679.41;4725775;30;20053;-69
2023/06/22 09:15:16;;;;;;;1.42;1.42;;;27.60;99.90;;;27.71;48.50;101675.53;4726059;30;20432;-68
2023/06/22 09:17:47;;;;;;;1.88;1.77;;;27.60;99.90;;;26.94;49.09;101680.28;4728093;30;20199;-68
2023/06/22 09:20:16;;;;;;;1.63;1.63;;;26.80;99.90;;;27.23;49.86;101671.25;4727336;30;20057;-68
2023/06/22 09:22:44;;;;;;;1.85;1.75;;;26.90;99.90;;;27.22;47.27;101671.31;4726976;30;20057;-69
2023/06/22 09:25:13;;;;;;;2.65;2.45;;;26.90;99.90;;;25.80;50.20;101668.72;4727660;30;20053;-68
2023/06/22 09:27:41;;;;;;;2.20;2.10;;;25.80;99.90;;;25.81;51.51;101665.03;4726091;30;20053;-68
2023/06/22 09:30:12;;;;;;;2.60;2.50;;;25.50;99.90;;;26.41;52.59;101652.63;4728713;30;20068;-69
2023/06/22 09:32:42;;;;;;;1.60;1.60;;;25.80;99.90;;;26.70;51.44;101662.69;4718288;30;20092;-68
2023/06/22 09:35:12;;;;;;;2.13;2.03;;;26.20;99.90;;;26.64;50.80;101661.19;4718270;30;20064;-69
2023/06/22 09:37:41;;;;;;;;;;;26.30;99.90;;;26.85;50.77;101658.22;4712150;30;20155;-68
2023/06/22 09:40:12;;;;;;;1.95;1.90;;;26.50;99.90;;;27.01;50.59;101649.03;4718005;30;19934;-69
2023/06/22 09:42:42;;;;;;;2.00;1.90;;;26.70;99.90;;;27.15;50.41;101651.81;4727462;30;20406;-69
2023/06/22 09:45:12;;;;;;;1.70;1.70;;;26.80;99.90;;;27.31;50.92;101646.31;4725980;30;20053;-69
2023/06/22 09:47:41;;;;;;;1.48;1.48;;;27.00;99.90;;;27.43;50.98;101642.84;4728138;30;20052;-69
2023/06/22 09:50:10;;;;;;;1.30;1.30;;;27.10;99.90;;;27.55;51.68;101636.66;4717782;30;20496;-68
2023/06/22 09:52:39;;;;;;;1.60;1.60;;;27.30;99.90;;;27.64;51.57;101644.25;4717804;30;20143;-68
2023/06/22 09:55:10;;;;;;;1.42;1.42;;;27.40;99.90;;;27.66;51.97;101643.16;4718406;30;20136;-68
2023/06/22 09:57:38;;;;;;;1.60;1.60;;;27.50;99.90;;;27.63;52.02;101646.09;4721384;30;20060;-68
2023/06/22 10:00:10;;;;;;;1.50;1.50;;;27.50;99.90;;;27.54;52.36;101643.97;4725385;30;20140;-68
2023/06/22 10:02:40;;;;;;;1.63;1.63;;;27.40;99.90;;;27.65;52.88;101646.88;4725431;30;20057;-67
2023/06/22 10:05:09;;;;;;;1.38;1.38;;;27.40;99.90;;;27.76;53.33;101648.03;4726860;30;20059;-68
2023/06/22 10:07:42;;;;;;;1.58;1.58;;;27.50;99.90;;;27.68;52.64;101643.94;4725094;30;20141;-68
2023/06/22 10:10:11;;;;;;;2.00;1.90;;;27.50;99.90;;;27.60;53.58;101656.28;4727325;30;20064;-68
2023/06/22 10:12:46;;;;;;;1.40;1.40;;;27.40;99.90;;;27.64;54.13;101655.97;4725693;30;20060;-68
2023/06/22 10:15:15;;;;;;;4.40;2.78;;;27.40;99.90;;;27.73;54.55;101654.53;4725762;30;20056;-68
2023/06/22 10:17:45;;;;;;;1.73;1.73;;;27.50;99.90;;;27.76;54.55;101656.22;4709301;30;20065;-68
2023/06/22 10:20:14;;;;;;;1.73;1.67;;;27.50;99.90;;;27.72;53.20;101646.50;4727920;30;20087;-68
2023/06/22 10:22:45;;;;;;;1.90;1.80;;;27.50;99.90;;;27.59;53.28;101655.41;4717517;30;20073;-69
2023/06/22 10:25:14;;;;;;;1.67;1.67;;;27.40;99.90;;;27.56;52.79;101661.03;4717466;30;20515;-69
2023/06/22 10:27:43;;;;;;;1.50;1.50;;;27.30;99.90;;;27.57;53.42;101651.03;4717243;30;20045;-68
2023/06/22 10:30:13;;;;;;;1.70;1.70;;;27.30;99.90;;;27.65;53.82;101654.16;4720845;30;20052;-68